sensor_id;sensor_type;location;lat;lon;timestamp;pressure;altitude;pressure_sealevel;temperature;humidity
21817;BME280;13247;47.504;7.382;2024-03-17T00:01:42;98112.38;;;9.42;100.00
21817;BME280;13247;47.504;7.382;2024-03-17T00:04:27;98117.63;;;9.41;100.00
21817;BME280;13247;47.504;7.382;2024-03-17T00:07:12;98109.94;;;9.30;100.00
21817;BME280;13247;47.504;7.382;2024-03-17T00:09:57;98116.75;;;9.43;100.00
21817;BME280;13247;47.504;7.382;2024-03-17T00:12:42;98117.53;;;9.47;100.00
21817;BME280;13247;47.504;7.382;2024-03-17T00:15:27;98113.81;;;9.63;100.00
21817;BME280;13247;47.504;7.382;2024-03-17T00:18:13;98111.47;;;9.45;100.00
21817;BME280;13247;47.504;7.382;2024-03-17T00:20:57;98106.59;;;9.19;100.00
21817;BME280;13247;47.504;7.382;2024-03-17T00:23:44;98111.06;;;9.11;100.00
21817;BME280;13247;47.504;7.382;2024-03-17T00:26:29;98109.13;;;9.27;100.00
21817;BME280;13247;47.504;7.382;2024-03-17T00:29:14;98102.91;;;9.35;100.00
21817;BME280;13247;47.504;7.382;2024-03-17T00:31:59;98085.28;;;9.45;100.00
21817;BME280;13247;47.504;7.382;2024-03-17T00:34:44;98086.94;;;9.52;100.00
21817;BME280;13247;47.504;7.382;2024-03-17T00:37:29;98087.44;;;9.75;100.00
21817;BME280;13247;47.504;7.382;2024-03-17T00:40:13;98083.09;;;9.74;100.00
21817;BME280;13247;47.504;7.382;2024-03-17T00:42:59;98079.94;;;9.54;100.00
21817;BME280;13247;47.504;7.382;2024-03-17T00:45:50;98072.28;;;9.39;100.00
21817;BME280;13247;47.504;7.382;2024-03-17T00:48:35;98066.88;;;9.51;100.00
21817;BME280;13247;47.504;7.382;2024-03-17T00:51:20;98064.88;;;9.65;100.00
21817;BME280;13247;47.504;7.382;2024-03-17T00:54:04;98064.03;;;9.65;100.00
21817;BME280;13247;47.504;7.382;2024-03-17T00:56:48;98057.06;;;9.64;100.00
21817;BME280;13247;47.504;7.382;2024-03-17T00:59:33;98052.00;;;9.53;100.00
21817;BME280;13247;47.504;7.382;2024-03-17T01:02:18;98056.25;;;9.60;100.00
21817;BME280;13247;47.504;7.382;2024-03-17T01:05:04;98063.38;;;9.50;100.00
21817;BME280;13247;47.504;7.382;2024-03-17T01:07:50;98062.53;;;9.50;100.00
21817;BME280;13247;47.504;7.382;2024-03-17T01:10:37;98057.41;;;9.42;100.00
21817;BME280;13247;47.504;7.382;2024-03-17T01:13:22;98068.88;;;9.35;100.00
21817;BME280;13247;47.504;7.382;2024-03-17T01:16:07;98068.84;;;9.37;100.00
21817;BME280;13247;47.504;7.382;2024-03-17T01:18:52;98068.53;;;9.55;100.00
21817;BME280;13247;47.504;7.382;2024-03-17T01:21:36;98054.34;;;9.71;100.00
21817;BME280;13247;47.504;7.382;2024-03-17T01:24:21;98045.44;;;9.81;100.00
21817;BME280;13247;47.504;7.382;2024-03-17T01:27:06;98042.56;;;9.95;100.00
21817;BME280;13247;47.504;7.382;2024-03-17T01:29:51;98036.78;;;9.76;100.00
21817;BME280;13247;47.504;7.382;2024-03-17T01:32:36;98044.88;;;9.61;100.00
21817;BME280;13247;47.504;7.382;2024-03-17T01:35:22;98044.50;;;9.30;100.00
21817;BME280;13247;47.504;7.382;2024-03-17T01:38:07;98038.97;;;9.48;100.00
21817;BME280;13247;47.504;7.382;2024-03-17T01:40:52;98037.00;;;9.64;100.00
21817;BME280;13247;47.504;7.382;2024-03-17T01:43:36;98038.66;;;9.68;100.00
21817;BME280;13247;47.504;7.382;2024-03-17T01:46:21;98033.28;;;9.77;100.00
21817;BME280;13247;47.504;7.382;2024-03-17T01:49:05;98026.78;;;9.98;100.00
21817;BME280;13247;47.504;7.382;2024-03-17T01:51:52;98017.94;;;10.05;100.00
21817;BME280;13247;47.504;7.382;2024-03-17T01:54:37;98017.41;;;9.85;100.00
21817;BME280;13247;47.504;7.382;2024-03-17T01:57:22;98018.81;;;9.57;100.00
21817;BME280;13247;47.504;7.382;2024-03-17T02:00:07;98021.72;;;9.37;100.00
21817;BME280;13247;47.504;7.382;2024-03-17T02:02:53;98023.56;;;9.30;100.00
21817;BME280;13247;47.504;7.382;2024-03-17T02:05:38;98026.22;;;9.29;100.00
21817;BME280;13247;47.504;7.382;2024-03-17T02:08:23;98017.19;;;9.48;100.00
21817;BME280;13247;47.504;7.382;2024-03-17T02:11:27;98010.88;;;9.60;100.00
21817;BME280;13247;47.504;7.382;2024-03-17T02:14:12;98005.47;;;9.70;100.00
21817;BME280;13247;47.504;7.382;2024-03-17T02:16:59;97987.09;;;9.72;100.00
21817;BME280;13247;47.504;7.382;2024-03-17T02:19:43;97981.06;;;9.68;100.00
21817;BME280;13247;47.504;7.382;2024-03-17T02:22:28;97988.88;;;9.70;100.00
21817;BME280;13247;47.504;7.382;2024-03-17T02:25:13;97972.34;;;9.66;100.00
21817;BME280;13247;47.504;7.382;2024-03-17T02:27:58;97971.38;;;9.72;100.00
21817;BME280;13247;47.504;7.382;2024-03-17T02:30:42;97955.59;;;9.78;100.00
21817;BME280;13247;47.504;7.382;2024-03-17T02:33:27;97955.66;;;9.73;100.00
21817;BME280;13247;47.504;7.382;2024-03-17T02:36:12;97960.31;;;9.56;100.00
21817;BME280;13247;47.504;7.382;2024-03-17T02:38:56;97956.88;;;9.54;100.00
21817;BME280;13247;47.504;7.382;2024-03-17T02:42:07;97956.69;;;9.63;100.00
21817;BME280;13247;47.504;7.382;2024-03-17T02:44:52;97959.16;;;9.72;100.00
21817;BME280;13247;47.504;7.382;2024-03-17T02:47:37;97956.19;;;9.43;100.00
21817;BME280;13247;47.504;7.382;2024-03-17T02:50:22;97955.28;;;9.45;100.00
21817;BME280;13247;47.504;7.382;2024-03-17T02:53:07;97947.38;;;9.47;100.00
21817;BME280;13247;47.504;7.382;2024-03-17T02:55:51;97943.91;;;9.48;100.00
21817;BME280;13247;47.504;7.382;2024-03-17T02:58:37;97934.72;;;9.73;100.00
21817;BME280;13247;47.504;7.382;2024-03-17T03:01:21;97940.25;;;9.55;100.00
21817;BME280;13247;47.504;7.382;2024-03-17T03:04:06;97945.72;;;9.43;100.00
21817;BME280;13247;47.504;7.382;2024-03-17T03:06:51;97952.75;;;9.38;100.00
21817;BME280;13247;47.504;7.382;2024-03-17T03:09:35;97960.34;;;9.01;100.00
21817;BME280;13247;47.504;7.382;2024-03-17T03:12:20;97961.75;;;8.65;100.00
21817;BME280;13247;47.504;7.382;2024-03-17T03:15:05;97967.09;;;8.56;100.00
21817;BME280;13247;47.504;7.382;2024-03-17T03:17:50;97962.50;;;8.74;100.00
21817;BME280;13247;47.504;7.382;2024-03-17T03:20:35;97980.38;;;9.04;100.00
21817;BME280;13247;47.504;7.382;2024-03-17T03:23:20;97969.00;;;9.05;100.00
21817;BME280;13247;47.504;7.382;2024-03-17T03:26:05;97971.75;;;8.96;100.00
21817;BME280;13247;47.504;7.382;2024-03-17T03:28:53;97965.44;;;9.10;100.00
21817;BME280;13247;47.504;7.382;2024-03-17T03:31:38;97956.00;;;9.00;100.00
21817;BME280;13247;47.504;7.382;2024-03-17T03:34:23;97951.81;;;8.90;100.00
21817;BME280;13247;47.504;7.382;2024-03-17T03:37:08;97949.97;;;8.97;100.00
21817;BME280;13247;47.504;7.382;2024-03-17T03:39:54;97947.44;;;8.91;100.00
21817;BME280;13247;47.504;7.382;2024-03-17T03:42:38;97934.19;;;9.01;100.00
21817;BME280;13247;47.504;7.382;2024-03-17T03:45:23;97934.53;;;8.80;100.00
21817;BME280;13247;47.504;7.382;2024-03-17T03:48:08;97933.69;;;8.77;100.00
21817;BME280;13247;47.504;7.382;2024-03-17T03:50:53;97932.06;;;8.69;100.00
21817;BME280;13247;47.504;7.382;2024-03-17T03:53:38;97933.03;;;8.62;100.00
21817;BME280;13247;47.504;7.382;2024-03-17T03:56:24;97936.44;;;8.66;100.00
21817;BME280;13247;47.504;7.382;2024-03-17T03:59:10;97930.72;;;8.41;100.00
21817;BME280;13247;47.504;7.382;2024-03-17T04:01:54;97929.75;;;8.48;100.00
21817;BME280;13247;47.504;7.382;2024-03-17T04:04:40;97922.63;;;8.58;100.00
21817;BME280;13247;47.504;7.382;2024-03-17T04:07:25;97923.09;;;8.23;100.00
21817;BME280;13247;47.504;7.382;2024-03-17T04:10:10;97929.25;;;8.16;100.00
21817;BME280;13247;47.504;7.382;2024-03-17T04:12:55;97929.53;;;7.92;100.00
21817;BME280;13247;47.504;7.382;2024-03-17T04:15:41;97929.53;;;7.92;100.00
21817;BME280;13247;47.504;7.382;2024-03-17T04:18:27;97940.78;;;7.99;100.00
21817;BME280;13247;47.504;7.382;2024-03-17T04:21:14;97950.13;;;7.39;100.00
21817;BME280;13247;47.504;7.382;2024-03-17T04:23:59;97956.03;;;7.57;100.00
21817;BME280;13247;47.504;7.382;2024-03-17T04:26:44;97947.16;;;7.75;100.00
21817;BME280;13247;47.504;7.382;2024-03-17T04:29:28;97949.72;;;7.81;100.00
21817;BME280;13247;47.504;7.382;2024-03-17T04:32:13;97952.38;;;7.75;100.00
21817;BME280;13247;47.504;7.382;2024-03-17T04:34:58;97948.84;;;7.77;100.00
21817;BME280;13247;47.504;7.382;2024-03-17T04:37:43;97952.19;;;7.90;100.00
21817;BME280;13247;47.504;7.382;2024-03-17T04:40:27;97952.09;;;7.99;100.00
21817;BME280;13247;47.504;7.382;2024-03-17T04:43:12;97952.19;;;7.90;100.00
21817;BME280;13247;47.504;7.382;2024-03-17T04:46:01;97955.59;;;7.97;100.00
21817;BME280;13247;47.504;7.382;2024-03-17T04:48:48;97959.91;;;7.12;100.00
21817;BME280;13247;47.504;7.382;2024-03-17T04:51:32;97966.00;;;7.11;100.00
21817;BME280;13247;47.504;7.382;2024-03-17T04:54:17;97965.78;;;7.36;100.00
21817;BME280;13247;47.504;7.382;2024-03-17T04:57:02;97963.06;;;7.51;100.00
21817;BME280;13247;47.504;7.382;2024-03-17T04:59:47;97960.34;;;7.61;100.00
21817;BME280;13247;47.504;7.382;2024-03-17T05:02:31;97956.81;;;7.68;100.00
21817;BME280;13247;47.504;7.382;2024-03-17T05:05:17;97947.13;;;7.76;100.00
21817;BME280;13247;47.504;7.382;2024-03-17T05:08:02;97936.72;;;7.75;100.00
21817;BME280;13247;47.504;7.382;2024-03-17T05:10:48;97934.88;;;7.83;100.00
21817;BME280;13247;47.504;7.382;2024-03-17T05:13:33;97929.59;;;7.89;100.00
21817;BME280;13247;47.504;7.382;2024-03-17T05:16:18;97921.81;;;7.81;100.00
21817;BME280;13247;47.504;7.382;2024-03-17T05:19:03;97930.56;;;7.80;100.00
21817;BME280;13247;47.504;7.382;2024-03-17T05:21:48;97925.50;;;7.65;100.00
21817;BME280;13247;47.504;7.382;2024-03-17T05:24:33;97930.91;;;7.47;100.00
21817;BME280;13247;47.504;7.382;2024-03-17T05:27:17;97938.34;;;6.92;100.00
21817;BME280;13247;47.504;7.382;2024-03-17T05:30:02;97945.31;;;6.89;100.00
21817;BME280;13247;47.504;7.382;2024-03-17T05:32:48;97951.34;;;6.95;100.00
21817;BME280;13247;47.504;7.382;2024-03-17T05:35:33;97958.28;;;6.95;100.00
21817;BME280;13247;47.504;7.382;2024-03-17T05:38:25;97959.19;;;6.91;100.00
21817;BME280;13247;47.504;7.382;2024-03-17T05:41:10;97956.44;;;7.13;100.00
21817;BME280;13247;47.504;7.382;2024-03-17T05:43:54;97952.88;;;7.24;100.00
21817;BME280;13247;47.504;7.382;2024-03-17T05:46:42;97949.28;;;7.34;100.00
21817;BME280;13247;47.504;7.382;2024-03-17T05:49:28;97945.94;;;7.21;100.00
21817;BME280;13247;47.504;7.382;2024-03-17T05:52:12;97953.00;;;7.05;100.00
21817;BME280;13247;47.504;7.382;2024-03-17T05:54:57;97958.25;;;7.02;100.00
21817;BME280;13247;47.504;7.382;2024-03-17T05:57:42;97953.09;;;6.96;100.00
21817;BME280;13247;47.504;7.382;2024-03-17T06:00:27;97953.13;;;6.90;100.00
21817;BME280;13247;47.504;7.382;2024-03-17T06:03:11;97956.56;;;6.94;100.00
21817;BME280;13247;47.504;7.382;2024-03-17T06:05:59;97963.41;;;7.11;100.00
21817;BME280;13247;47.504;7.382;2024-03-17T06:08:44;97954.75;;;7.06;100.00
21817;BME280;13247;47.504;7.382;2024-03-17T06:11:29;97955.63;;;7.04;100.00
21817;BME280;13247;47.504;7.382;2024-03-17T06:14:13;97953.03;;;7.02;100.00
21817;BME280;13247;47.504;7.382;2024-03-17T06:16:58;97953.94;;;6.98;100.00
21817;BME280;13247;47.504;7.382;2024-03-17T06:19:43;97958.22;;;7.07;100.00
21817;BME280;13247;47.504;7.382;2024-03-17T06:22:27;97965.16;;;7.06;100.00
21817;BME280;13247;47.504;7.382;2024-03-17T06:25:12;97954.66;;;7.14;100.00
21817;BME280;13247;47.504;7.382;2024-03-17T06:27:57;97967.88;;;6.91;100.00
21817;BME280;13247;47.504;7.382;2024-03-17T06:30:45;97972.13;;;7.04;100.00
21817;BME280;13247;47.504;7.382;2024-03-17T06:33:34;97969.66;;;6.88;100.00
21817;BME280;13247;47.504;7.382;2024-03-17T06:36:18;97977.47;;;6.89;100.00
21817;BME280;13247;47.504;7.382;2024-03-17T06:39:03;97978.28;;;6.93;100.00
21817;BME280;13247;47.504;7.382;2024-03-17T06:41:47;97980.81;;;7.09;100.00
21817;BME280;13247;47.504;7.382;2024-03-17T06:44:32;97978.03;;;7.31;100.00
21817;BME280;13247;47.504;7.382;2024-03-17T06:47:18;97970.09;;;7.43;100.00
21817;BME280;13247;47.504;7.382;2024-03-17T06:50:04;97968.16;;;7.63;100.00
21817;BME280;13247;47.504;7.382;2024-03-17T06:52:49;97963.81;;;7.63;100.00
21817;BME280;13247;47.504;7.382;2024-03-17T06:55:34;97966.44;;;7.62;100.00
21817;BME280;13247;47.504;7.382;2024-03-17T06:58:18;97959.31;;;7.79;100.00
21817;BME280;13247;47.504;7.382;2024-03-17T07:01:07;97958.25;;;7.92;100.00
21817;BME280;13247;47.504;7.382;2024-03-17T07:03:52;97962.41;;;8.11;100.00
21817;BME280;13247;47.504;7.382;2024-03-17T07:06:37;97967.75;;;8.02;100.00
21817;BME280;13247;47.504;7.382;2024-03-17T07:09:22;97965.09;;;8.07;100.00
21817;BME280;13247;47.504;7.382;2024-03-17T07:12:10;97962.34;;;8.17;100.00
21817;BME280;13247;47.504;7.382;2024-03-17T07:14:55;97964.00;;;8.24;100.00
21817;BME280;13247;47.504;7.382;2024-03-17T07:17:39;97958.69;;;8.33;100.00
21817;BME280;13247;47.504;7.382;2024-03-17T07:20:24;97967.38;;;8.35;100.00
21817;BME280;13247;47.504;7.382;2024-03-17T07:23:08;97956.81;;;8.44;100.00
21817;BME280;13247;47.504;7.382;2024-03-17T07:26:00;97957.44;;;8.63;100.00
21817;BME280;13247;47.504;7.382;2024-03-17T07:28:45;97954.72;;;8.69;100.00
21817;BME280;13247;47.504;7.382;2024-03-17T07:31:30;97956.72;;;8.50;100.00
21817;BME280;13247;47.504;7.382;2024-03-17T07:34:14;97969.63;;;8.62;100.00
21817;BME280;13247;47.504;7.382;2024-03-17T07:36:59;97961.59;;;8.75;100.00
21817;BME280;13247;47.504;7.382;2024-03-17T07:39:45;97961.13;;;9.08;100.00
21817;BME280;13247;47.504;7.382;2024-03-17T07:42:33;97954.53;;;9.36;100.00
21817;BME280;13247;47.504;7.382;2024-03-17T07:45:19;97946.41;;;9.54;100.00
21817;BME280;13247;47.504;7.382;2024-03-17T07:48:03;97950.63;;;9.63;100.00
21817;BME280;13247;47.504;7.382;2024-03-17T07:50:57;97953.47;;;9.96;100.00
21817;BME280;13247;47.504;7.382;2024-03-17T07:53:43;97954.63;;;9.80;100.00
21817;BME280;13247;47.504;7.382;2024-03-17T07:56:36;97945.81;;;9.86;100.00
21817;BME280;13247;47.504;7.382;2024-03-17T07:59:20;97959.66;;;9.43;100.00
21817;BME280;13247;47.504;7.382;2024-03-17T08:02:05;97967.59;;;9.39;100.00
21817;BME280;13247;47.504;7.382;2024-03-17T08:04:52;97964.84;;;9.48;100.00
21817;BME280;13247;47.504;7.382;2024-03-17T08:07:37;97971.09;;;9.38;100.00
21817;BME280;13247;47.504;7.382;2024-03-17T08:10:22;97974.50;;;9.43;100.00
21817;BME280;13247;47.504;7.382;2024-03-17T08:13:06;97974.75;;;9.28;100.00
21817;BME280;13247;47.504;7.382;2024-03-17T08:15:58;97968.66;;;9.29;100.00
21817;BME280;13247;47.504;7.382;2024-03-17T08:18:43;97964.03;;;9.43;100.00
21817;BME280;13247;47.504;7.382;2024-03-17T08:21:28;97956.91;;;9.51;100.00
21817;BME280;13247;47.504;7.382;2024-03-17T08:24:14;97960.78;;;9.29;100.00
21817;BME280;13247;47.504;7.382;2024-03-17T08:26:59;97955.53;;;9.30;100.00
21817;BME280;13247;47.504;7.382;2024-03-17T08:29:44;97946.25;;;9.62;100.00
21817;BME280;13247;47.504;7.382;2024-03-17T08:32:28;97949.00;;;10.01;100.00
21817;BME280;13247;47.504;7.382;2024-03-17T08:35:14;97941.78;;;10.15;100.00
21817;BME280;13247;47.504;7.382;2024-03-17T08:37:59;97940.50;;;9.89;100.00
21817;BME280;13247;47.504;7.382;2024-03-17T08:40:45;97942.72;;;9.64;100.00
21817;BME280;13247;47.504;7.382;2024-03-17T08:43:29;97942.44;;;9.79;100.00
21817;BME280;13247;47.504;7.382;2024-03-17T08:46:14;97945.19;;;9.72;100.00
21817;BME280;13247;47.504;7.382;2024-03-17T08:48:59;97949.25;;;9.40;100.00
21817;BME280;13247;47.504;7.382;2024-03-17T08:51:44;97953.50;;;9.47;100.00
21817;BME280;13247;47.504;7.382;2024-03-17T08:54:28;97954.25;;;9.54;100.00
21817;BME280;13247;47.504;7.382;2024-03-17T08:57:13;97959.34;;;9.62;100.00
21817;BME280;13247;47.504;7.382;2024-03-17T08:59:58;97951.78;;;9.94;100.00
21817;BME280;13247;47.504;7.382;2024-03-17T09:02:43;97942.41;;;9.81;100.00
21817;BME280;13247;47.504;7.382;2024-03-17T09:05:27;97935.63;;;9.71;100.00
21817;BME280;13247;47.504;7.382;2024-03-17T09:08:17;97940.78;;;9.74;100.00
21817;BME280;13247;47.504;7.382;2024-03-17T09:11:12;97948.16;;;9.99;100.00
21817;BME280;13247;47.504;7.382;2024-03-17T09:13:57;97945.09;;;9.76;100.00
21817;BME280;13247;47.504;7.382;2024-03-17T09:16:43;97944.00;;;9.89;100.00
21817;BME280;13247;47.504;7.382;2024-03-17T09:19:27;97942.97;;;9.98;100.00
21817;BME280;13247;47.504;7.382;2024-03-17T09:22:13;97947.06;;;10.12;100.00
21817;BME280;13247;47.504;7.382;2024-03-17T09:24:58;97944.16;;;10.27;100.00
21817;BME280;13247;47.504;7.382;2024-03-17T09:27:43;97941.25;;;10.40;100.00
21817;BME280;13247;47.504;7.382;2024-03-17T09:30:27;97936.38;;;10.63;100.00
21817;BME280;13247;47.504;7.382;2024-03-17T09:33:12;97920.47;;;11.09;100.00
21817;BME280;13247;47.504;7.382;2024-03-17T09:38:43;97899.50;;;11.42;100.00
21817;BME280;13247;47.504;7.382;2024-03-17T09:41:29;97906.47;;;11.43;100.00
21817;BME280;13247;47.504;7.382;2024-03-17T09:44:14;97905.91;;;11.31;100.00
21817;BME280;13247;47.504;7.382;2024-03-17T09:47:01;97912.91;;;11.30;100.00
21817;BME280;13247;47.504;7.382;2024-03-17T09:49:47;97917.72;;;11.13;100.00
21817;BME280;13247;47.504;7.382;2024-03-17T09:52:34;97921.78;;;11.26;100.00
21817;BME280;13247;47.504;7.382;2024-03-17T09:55:18;97926.00;;;11.67;100.00
21817;BME280;13247;47.504;7.382;2024-03-17T09:58:03;97914.31;;;11.78;100.00
21817;BME280;13247;47.504;7.382;2024-03-17T10:00:48;97914.38;;;12.08;100.00
21817;BME280;13247;47.504;7.382;2024-03-17T10:06:26;97914.00;;;11.91;100.00
21817;BME280;13247;47.504;7.382;2024-03-17T10:09:16;97923.28;;;11.71;100.00
21817;BME280;13247;47.504;7.382;2024-03-17T10:12:24;97931.16;;;11.71;100.00
21817;BME280;13247;47.504;7.382;2024-03-17T10:15:13;97943.38;;;11.37;100.00
21817;BME280;13247;47.504;7.382;2024-03-17T10:17:58;97945.31;;;11.64;100.00
21817;BME280;13247;47.504;7.382;2024-03-17T10:20:43;97949.06;;;11.54;100.00
21817;BME280;13247;47.504;7.382;2024-03-17T10:23:27;97947.44;;;11.50;100.00
21817;BME280;13247;47.504;7.382;2024-03-17T10:26:14;97953.16;;;11.31;100.00
21817;BME280;13247;47.504;7.382;2024-03-17T10:28:59;97953.41;;;11.20;100.00
21817;BME280;13247;47.504;7.382;2024-03-17T10:31:44;97965.91;;;11.11;100.00
21817;BME280;13247;47.504;7.382;2024-03-17T10:34:30;97966.50;;;11.22;100.00
21817;BME280;13247;47.504;7.382;2024-03-17T10:37:21;97957.84;;;11.53;100.00
21817;BME280;13247;47.504;7.382;2024-03-17T10:40:12;97955.75;;;11.32;100.00
21817;BME280;13247;47.504;7.382;2024-03-17T10:43:01;97949.72;;;11.29;100.00
21817;BME280;13247;47.504;7.382;2024-03-17T10:45:46;97951.38;;;11.33;100.00
21817;BME280;13247;47.504;7.382;2024-03-17T10:48:32;97940.06;;;11.64;100.00
21817;BME280;13247;47.504;7.382;2024-03-17T10:51:18;97939.00;;;11.73;100.00
21817;BME280;13247;47.504;7.382;2024-03-17T10:54:04;97931.28;;;11.99;100.00
21817;BME280;13247;47.504;7.382;2024-03-17T10:56:49;97927.91;;;11.94;100.00
21817;BME280;13247;47.504;7.382;2024-03-17T10:59:42;97917.56;;;12.19;100.00
21817;BME280;13247;47.504;7.382;2024-03-17T11:02:31;97913.59;;;12.35;100.00
21817;BME280;13247;47.504;7.382;2024-03-17T11:08:05;97906.09;;;12.50;100.00
21817;BME280;13247;47.504;7.382;2024-03-17T11:10:53;97890.81;;;12.91;100.00
21817;BME280;13247;47.504;7.382;2024-03-17T11:13:40;97892.63;;;12.90;100.00
21817;BME280;13247;47.504;7.382;2024-03-17T11:16:27;97871.44;;;12.66;100.00
21817;BME280;13247;47.504;7.382;2024-03-17T11:19:16;97882.47;;;12.49;100.00
21817;BME280;13247;47.504;7.382;2024-03-17T11:34:37;97837.59;;;13.60;100.00
21817;BME280;13247;47.504;7.382;2024-03-17T11:37:43;97841.72;;;13.67;100.00
21817;BME280;13247;47.504;7.382;2024-03-17T11:40:28;97829.53;;;13.64;100.00
21817;BME280;13247;47.504;7.382;2024-03-17T11:43:17;97818.75;;;13.95;100.00
21817;BME280;13247;47.504;7.382;2024-03-17T11:46:02;97821.03;;;14.04;100.00
21817;BME280;13247;47.504;7.382;2024-03-17T11:48:48;97807.75;;;14.30;100.00
21817;BME280;13247;47.504;7.382;2024-03-17T11:51:35;97803.59;;;14.23;100.00
21817;BME280;13247;47.504;7.382;2024-03-17T11:54:23;97805.19;;;14.27;100.00
21817;BME280;13247;47.504;7.382;2024-03-17T11:57:22;97796.91;;;14.59;100.00
21817;BME280;13247;47.504;7.382;2024-03-17T12:00:19;97780.63;;;14.91;100.00
21817;BME280;13247;47.504;7.382;2024-03-17T12:03:05;97781.56;;;15.11;100.00
21817;BME280;13247;47.504;7.382;2024-03-17T12:05:53;97775.72;;;15.24;100.00
21817;BME280;13247;47.504;7.382;2024-03-17T12:08:38;97777.56;;;15.22;100.00
21817;BME280;13247;47.504;7.382;2024-03-17T12:11:23;97782.09;;;14.99;100.00
21817;BME280;13247;47.504;7.382;2024-03-17T12:14:18;97769.19;;;14.91;100.00
21817;BME280;13247;47.504;7.382;2024-03-17T12:17:08;97767.97;;;15.20;100.00
21817;BME280;13247;47.504;7.382;2024-03-17T12:19:54;97748.63;;;15.59;100.00
21817;BME280;13247;47.504;7.382;2024-03-17T12:22:40;97751.00;;;15.25;100.00
21817;BME280;13247;47.504;7.382;2024-03-17T12:25:26;97749.09;;;15.49;100.00
21817;BME280;13247;47.504;7.382;2024-03-17T12:28:17;97748.38;;;15.84;100.00
21817;BME280;13247;47.504;7.382;2024-03-17T12:31:02;97747.56;;;15.63;100.00
21817;BME280;13247;47.504;7.382;2024-03-17T12:33:47;97747.84;;;15.57;100.00
21817;BME280;13247;47.504;7.382;2024-03-17T12:36:32;97738.44;;;15.70;100.00
21817;BME280;13247;47.504;7.382;2024-03-17T12:39:22;97740.63;;;15.41;100.00
21817;BME280;13247;47.504;7.382;2024-03-17T12:42:16;97724.28;;;15.71;100.00
21817;BME280;13247;47.504;7.382;2024-03-17T12:45:10;97731.69;;;15.63;100.00
21817;BME280;13247;47.504;7.382;2024-03-17T12:47:55;97724.25;;;15.53;100.00
21817;BME280;13247;47.504;7.382;2024-03-17T12:50:45;97719.19;;;15.67;100.00
21817;BME280;13247;47.504;7.382;2024-03-17T12:53:30;97709.75;;;15.61;100.00
21817;BME280;13247;47.504;7.382;2024-03-17T12:56:23;97709.94;;;15.77;100.00
21817;BME280;13247;47.504;7.382;2024-03-17T12:59:40;97713.84;;;15.50;100.00
21817;BME280;13247;47.504;7.382;2024-03-17T13:03:39;97701.34;;;15.72;100.00
21817;BME280;13247;47.504;7.382;2024-03-17T13:06:08;97700.78;;;15.25;100.00
21817;BME280;13247;47.504;7.382;2024-03-17T13:08:53;97700.16;;;15.79;100.00
21817;BME280;13247;47.504;7.382;2024-03-17T13:11:38;97696.53;;;15.43;100.00
21817;BME280;13247;47.504;7.382;2024-03-17T13:14:24;97703.38;;;15.07;100.00
21817;BME280;13247;47.504;7.382;2024-03-17T13:17:14;97705.16;;;15.26;100.00
21817;BME280;13247;47.504;7.382;2024-03-17T13:20:01;97706.81;;;15.09;100.00
21817;BME280;13247;47.504;7.382;2024-03-17T13:22:46;97706.31;;;14.59;100.00
21817;BME280;13247;47.504;7.382;2024-03-17T13:25:31;97714.53;;;14.51;100.00
21817;BME280;13247;47.504;7.382;2024-03-17T13:28:21;97701.38;;;14.91;100.00
21817;BME280;13247;47.504;7.382;2024-03-17T13:31:07;97700.19;;;14.78;100.00
21817;BME280;13247;47.504;7.382;2024-03-17T13:33:54;97700.72;;;14.66;100.00
21817;BME280;13247;47.504;7.382;2024-03-17T13:36:39;97695.47;;;14.86;100.00
21817;BME280;13247;47.504;7.382;2024-03-17T13:39:29;97690.97;;;14.88;100.00
21817;BME280;13247;47.504;7.382;2024-03-17T13:42:16;97694.03;;;14.58;100.00
21817;BME280;13247;47.504;7.382;2024-03-17T13:45:01;97693.66;;;14.87;100.00
21817;BME280;13247;47.504;7.382;2024-03-17T13:47:51;97691.25;;;14.82;100.00
21817;BME280;13247;47.504;7.382;2024-03-17T13:50:38;97679.84;;;14.40;100.00
21817;BME280;13247;47.504;7.382;2024-03-17T13:53:23;97673.41;;;14.02;100.00
21817;BME280;13247;47.504;7.382;2024-03-17T13:56:08;97672.03;;;14.37;100.00
21817;BME280;13247;47.504;7.382;2024-03-17T13:58:55;97678.22;;;14.36;100.00
21817;BME280;13247;47.504;7.382;2024-03-17T14:01:39;97673.25;;;14.29;100.00
21817;BME280;13247;47.504;7.382;2024-03-17T14:04:24;97670.47;;;14.53;100.00
21817;BME280;13247;47.504;7.382;2024-03-17T14:07:09;97667.53;;;14.61;100.00
21817;BME280;13247;47.504;7.382;2024-03-17T14:09:54;97675.09;;;14.68;100.00
21817;BME280;13247;47.504;7.382;2024-03-17T14:12:39;97664.81;;;15.03;100.00
21817;BME280;13247;47.504;7.382;2024-03-17T14:15:24;97674.28;;;14.88;100.00
21817;BME280;13247;47.504;7.382;2024-03-17T14:18:09;97670.75;;;14.87;100.00
21817;BME280;13247;47.504;7.382;2024-03-17T14:20:54;97674.13;;;14.91;100.00
21817;BME280;13247;47.504;7.382;2024-03-17T14:23:38;97666.16;;;15.31;100.00
21817;BME280;13247;47.504;7.382;2024-03-17T14:26:23;97675.63;;;15.17;100.00
21817;BME280;13247;47.504;7.382;2024-03-17T14:29:08;97676.81;;;15.30;100.00
21817;BME280;13247;47.504;7.382;2024-03-17T14:31:53;97673.09;;;15.54;100.00
21817;BME280;13247;47.504;7.382;2024-03-17T14:34:37;97680.38;;;15.49;100.00
21817;BME280;13247;47.504;7.382;2024-03-17T14:37:23;97676.94;;;15.47;100.00
21817;BME280;13247;47.504;7.382;2024-03-17T14:40:09;97675.31;;;15.63;100.00
21817;BME280;13247;47.504;7.382;2024-03-17T14:43:02;97677.59;;;15.52;100.00
21817;BME280;13247;47.504;7.382;2024-03-17T14:45:48;97685.75;;;15.66;100.00
21817;BME280;13247;47.504;7.382;2024-03-17T14:48:33;97687.06;;;15.37;100.00
21817;BME280;13247;47.504;7.382;2024-03-17T14:51:19;97670.66;;;15.49;100.00
21817;BME280;13247;47.504;7.382;2024-03-17T14:54:05;97670.81;;;15.65;100.00
21817;BME280;13247;47.504;7.382;2024-03-17T14:56:52;97655.69;;;15.87;100.00
21817;BME280;13247;47.504;7.382;2024-03-17T14:59:38;97654.19;;;15.24;100.00